sensor_id;sensor_type;location;lat;lon;timestamp;pressure;altitude;pressure_sealevel;temperature;humidity
16580;BME280;8402;51.466;6.806;2022-12-07T00:01:18;101417.56;;;6.81;100.00
16580;BME280;8402;51.466;6.806;2022-12-07T00:03:49;101424.31;;;6.79;100.00
16580;BME280;8402;51.466;6.806;2022-12-07T00:06:17;101423.47;;;6.78;100.00
16580;BME280;8402;51.466;6.806;2022-12-07T00:08:47;101421.34;;;6.80;100.00
16580;BME280;8402;51.466;6.806;2022-12-07T00:11:19;101417.84;;;6.75;100.00
16580;BME280;8402;51.466;6.806;2022-12-07T00:13:47;101427.28;;;6.72;100.00
16580;BME280;8402;51.466;6.806;2022-12-07T00:16:20;101422.69;;;6.78;100.00
16580;BME280;8402;51.466;6.806;2022-12-07T00:18:48;101421.06;;;6.82;100.00
16580;BME280;8402;51.466;6.806;2022-12-07T00:21:18;101421.59;;;6.84;100.00
16580;BME280;8402;51.466;6.806;2022-12-07T00:23:48;101420.25;;;6.86;100.00
16580;BME280;8402;51.466;6.806;2022-12-07T00:26:19;101417.00;;;6.84;100.00
16580;BME280;8402;51.466;6.806;2022-12-07T00:28:48;101421.59;;;6.84;100.00
16580;BME280;8402;51.466;6.806;2022-12-07T00:31:18;101412.16;;;6.81;100.00
16580;BME280;8402;51.466;6.806;2022-12-07T00:33:47;101412.44;;;6.80;100.00
16580;BME280;8402;51.466;6.806;2022-12-07T00:36:16;101419.72;;;6.79;100.00
16580;BME280;8402;51.466;6.806;2022-12-07T00:38:52;101412.72;;;6.73;100.00
16580;BME280;8402;51.466;6.806;2022-12-07T00:41:23;101408.66;;;6.76;100.00
16580;BME280;8402;51.466;6.806;2022-12-07T00:43:52;101408.66;;;6.76;100.00
16580;BME280;8402;51.466;6.806;2022-12-07T00:46:21;101394.09;;;6.77;100.00
16580;BME280;8402;51.466;6.806;2022-12-07T00:48:50;101409.47;;;6.76;100.00
16580;BME280;8402;51.466;6.806;2022-12-07T00:51:20;101400.28;;;6.77;100.00
16580;BME280;8402;51.466;6.806;2022-12-07T00:53:49;101401.91;;;6.78;100.00
16580;BME280;8402;51.466;6.806;2022-12-07T00:56:19;101400.28;;;6.77;100.00
16580;BME280;8402;51.466;6.806;2022-12-07T00:58:51;101401.91;;;6.78;100.00
16580;BME280;8402;51.466;6.806;2022-12-07T01:01:19;101402.47;;;6.75;100.00
16580;BME280;8402;51.466;6.806;2022-12-07T01:03:48;101400.28;;;6.77;100.00
16580;BME280;8402;51.466;6.806;2022-12-07T01:06:16;101394.38;;;6.80;100.00
16580;BME280;8402;51.466;6.806;2022-12-07T01:08:44;101391.69;;;6.80;100.00
16580;BME280;8402;51.466;6.806;2022-12-07T01:11:14;101394.34;;;6.85;100.00
16580;BME280;8402;51.466;6.806;2022-12-07T01:13:44;101388.41;;;6.88;100.00
16580;BME280;8402;51.466;6.806;2022-12-07T01:16:15;101384.09;;;6.87;100.00
16580;BME280;8402;51.466;6.806;2022-12-07T01:18:46;101386.81;;;6.87;100.00
16580;BME280;8402;51.466;6.806;2022-12-07T01:21:16;101393.81;;;6.88;100.00
16580;BME280;8402;51.466;6.806;2022-12-07T01:23:45;101394.91;;;6.87;100.00
16580;BME280;8402;51.466;6.806;2022-12-07T01:26:14;101387.88;;;6.86;100.00
16580;BME280;8402;51.466;6.806;2022-12-07T01:28:43;101388.97;;;6.80;100.00
16580;BME280;8402;51.466;6.806;2022-12-07T01:31:14;101394.09;;;6.82;100.00
16580;BME280;8402;51.466;6.806;2022-12-07T01:33:44;101392.75;;;6.79;100.00
16580;BME280;8402;51.466;6.806;2022-12-07T01:36:14;101403.53;;;6.79;100.00
16580;BME280;8402;51.466;6.806;2022-12-07T01:38:43;101397.88;;;6.76;100.00
16580;BME280;8402;51.466;6.806;2022-12-07T01:41:12;101398.16;;;6.74;100.00
16580;BME280;8402;51.466;6.806;2022-12-07T01:44:10;101396.53;;;6.68;100.00
16580;BME280;8402;51.466;6.806;2022-12-07T01:46:40;101394.38;;;6.70;100.00
16580;BME280;8402;51.466;6.806;2022-12-07T01:49:11;101406.78;;;6.71;100.00
16580;BME280;8402;51.466;6.806;2022-12-07T01:51:41;101402.75;;;6.74;100.00
16580;BME280;8402;51.466;6.806;2022-12-07T01:54:11;101398.97;;;6.75;100.00
16580;BME280;8402;51.466;6.806;2022-12-07T01:56:40;101393.84;;;6.73;100.00
16580;BME280;8402;51.466;6.806;2022-12-07T01:59:10;101399.75;;;6.75;100.00
16580;BME280;8402;51.466;6.806;2022-12-07T02:01:38;101400.28;;;6.77;100.00
16580;BME280;8402;51.466;6.806;2022-12-07T02:04:07;101385.19;;;6.81;100.00
16580;BME280;8402;51.466;6.806;2022-12-07T02:06:36;101391.13;;;6.83;100.00
16580;BME280;8402;51.466;6.806;2022-12-07T02:09:05;101385.19;;;6.81;100.00
16580;BME280;8402;51.466;6.806;2022-12-07T02:11:33;101383.88;;;6.79;100.00
16580;BME280;8402;51.466;6.806;2022-12-07T02:14:01;101379.28;;;6.79;100.00
16580;BME280;8402;51.466;6.806;2022-12-07T02:16:36;101383.06;;;6.73;100.00
16580;BME280;8402;51.466;6.806;2022-12-07T02:19:38;101385.22;;;6.66;100.00
16580;BME280;8402;51.466;6.806;2022-12-07T02:22:22;101387.91;;;6.66;100.00
16580;BME280;8402;51.466;6.806;2022-12-07T02:25:05;101383.06;;;6.63;100.00
16580;BME280;8402;51.466;6.806;2022-12-07T02:27:45;101384.41;;;6.60;100.00
16580;BME280;8402;51.466;6.806;2022-12-07T02:30:17;101390.09;;;6.59;100.00
16580;BME280;8402;51.466;6.806;2022-12-07T02:32:51;101388.47;;;6.58;100.00
16580;BME280;8402;51.466;6.806;2022-12-07T02:35:27;101390.88;;;6.59;100.00
16580;BME280;8402;51.466;6.806;2022-12-07T02:38:03;101387.38;;;6.59;100.00
16580;BME280;8402;51.466;6.806;2022-12-07T02:40:39;101387.38;;;6.59;100.00
16580;BME280;8402;51.466;6.806;2022-12-07T02:43:12;101387.38;;;6.59;100.00
16580;BME280;8402;51.466;6.806;2022-12-07T02:45:44;101389.53;;;6.57;100.00
16580;BME280;8402;51.466;6.806;2022-12-07T02:48:15;101383.59;;;6.55;100.00
16580;BME280;8402;51.466;6.806;2022-12-07T02:50:44;101384.16;;;6.52;100.00
16580;BME280;8402;51.466;6.806;2022-12-07T02:53:33;101382.00;;;6.49;100.00
16580;BME280;8402;51.466;6.806;2022-12-07T02:56:07;101380.66;;;6.51;100.00
16580;BME280;8402;51.466;6.806;2022-12-07T02:58:47;101388.75;;;6.51;100.00
16580;BME280;8402;51.466;6.806;2022-12-07T03:01:28;101382.00;;;6.49;100.00
16580;BME280;8402;51.466;6.806;2022-12-07T03:04:11;101391.16;;;6.48;100.00
16580;BME280;8402;51.466;6.806;2022-12-07T03:06:49;101392.25;;;6.47;100.00
16580;BME280;8402;51.466;6.806;2022-12-07T03:09:22;101395.50;;;6.44;100.00
16580;BME280;8402;51.466;6.806;2022-12-07T03:12:00;101385.22;;;6.41;100.00
16580;BME280;8402;51.466;6.806;2022-12-07T03:14:30;101388.47;;;6.38;100.00
16580;BME280;8402;51.466;6.806;2022-12-07T03:17:05;101387.91;;;6.35;100.00
16580;BME280;8402;51.466;6.806;2022-12-07T03:19:36;101381.47;;;6.31;100.00
16580;BME280;8402;51.466;6.806;2022-12-07T03:22:08;101386.56;;;6.28;100.00
16580;BME280;8402;51.466;6.806;2022-12-07T03:24:41;101391.16;;;6.27;100.00
16580;BME280;8402;51.466;6.806;2022-12-07T03:27:14;101393.31;;;6.25;100.00
16580;BME280;8402;51.466;6.806;2022-12-07T03:29:47;101391.69;;;6.24;100.00
16580;BME280;8402;51.466;6.806;2022-12-07T03:32:23;101384.13;;;6.21;100.00
16580;BME280;8402;51.466;6.806;2022-12-07T03:34:56;101387.91;;;6.20;100.00
16580;BME280;8402;51.466;6.806;2022-12-07T03:37:30;101381.75;;;6.15;100.00
16580;BME280;8402;51.466;6.806;2022-12-07T03:40:06;101387.94;;;6.15;100.00
16580;BME280;8402;51.466;6.806;2022-12-07T03:42:34;101380.91;;;6.14;100.00
16580;BME280;8402;51.466;6.806;2022-12-07T03:45:04;101377.16;;;6.15;100.00
16580;BME280;8402;51.466;6.806;2022-12-07T03:47:39;101385.25;;;6.15;100.00
16580;BME280;8402;51.466;6.806;2022-12-07T03:50:14;101377.16;;;6.15;100.00
16580;BME280;8402;51.466;6.806;2022-12-07T03:52:47;101387.38;;;6.18;100.00
16580;BME280;8402;51.466;6.806;2022-12-07T03:55:24;101383.34;;;6.16;100.00
16580;BME280;8402;51.466;6.806;2022-12-07T03:57:56;101378.78;;;6.16;100.00
16580;BME280;8402;51.466;6.806;2022-12-07T04:00:26;101386.84;;;6.16;100.00
16580;BME280;8402;51.466;6.806;2022-12-07T04:02:56;101385.25;;;6.15;100.00
16580;BME280;8402;51.466;6.806;2022-12-07T04:05:24;101385.22;;;6.10;100.00
16580;BME280;8402;51.466;6.806;2022-12-07T04:07:52;101378.22;;;6.09;100.00
16580;BME280;8402;51.466;6.806;2022-12-07T04:10:20;101364.19;;;6.07;100.00
16580;BME280;8402;51.466;6.806;2022-12-07T04:12:48;101383.31;;;6.05;100.00
16580;BME280;8402;51.466;6.806;2022-12-07T04:15:16;101386.28;;;6.04;100.00
16580;BME280;8402;51.466;6.806;2022-12-07T04:17:44;101385.47;;;6.03;100.00
16580;BME280;8402;51.466;6.806;2022-12-07T04:20:14;101387.38;;;6.03;100.00
16580;BME280;8402;51.466;6.806;2022-12-07T04:22:42;101377.13;;;6.00;100.00
16580;BME280;8402;51.466;6.806;2022-12-07T04:25:10;101373.63;;;5.99;100.00
16580;BME280;8402;51.466;6.806;2022-12-07T04:27:38;101374.41;;;6.00;100.00
16580;BME280;8402;51.466;6.806;2022-12-07T04:30:07;101377.13;;;5.95;100.00
16580;BME280;8402;51.466;6.806;2022-12-07T04:32:35;101376.56;;;5.93;100.00
16580;BME280;8402;51.466;6.806;2022-12-07T04:35:04;101371.97;;;5.88;100.00
16580;BME280;8402;51.466;6.806;2022-12-07T04:37:35;101374.94;;;5.87;100.00
16580;BME280;8402;51.466;6.806;2022-12-07T04:40:07;101369.53;;;5.87;100.00
16580;BME280;8402;51.466;6.806;2022-12-07T04:42:37;101370.66;;;5.91;100.00
16580;BME280;8402;51.466;6.806;2022-12-07T04:45:06;101368.47;;;5.93;100.00
16580;BME280;8402;51.466;6.806;2022-12-07T04:47:34;101368.47;;;5.93;100.00
16580;BME280;8402;51.466;6.806;2022-12-07T04:50:02;101379.25;;;5.93;100.00
16580;BME280;8402;51.466;6.806;2022-12-07T04:52:31;101375.75;;;5.92;100.00
16580;BME280;8402;51.466;6.806;2022-12-07T04:55:00;101382.22;;;5.91;100.00
16580;BME280;8402;51.466;6.806;2022-12-07T04:57:28;101383.53;;;5.89;100.00
16580;BME280;8402;51.466;6.806;2022-12-07T04:59:56;101388.94;;;5.89;100.00
16580;BME280;8402;51.466;6.806;2022-12-07T05:02:24;101369.00;;;5.90;100.00
16580;BME280;8402;51.466;6.806;2022-12-07T05:04:52;101374.38;;;5.90;100.00
16580;BME280;8402;51.466;6.806;2022-12-07T05:07:22;101377.34;;;5.88;100.00
16580;BME280;8402;51.466;6.806;2022-12-07T05:09:50;101372.25;;;5.87;100.00
16580;BME280;8402;51.466;6.806;2022-12-07T05:12:19;101373.28;;;5.86;100.00
16580;BME280;8402;51.466;6.806;2022-12-07T05:14:47;101369.53;;;5.87;100.00
16580;BME280;8402;51.466;6.806;2022-12-07T05:17:15;101368.75;;;5.86;100.00
16580;BME280;8402;51.466;6.806;2022-12-07T05:19:43;101370.88;;;5.84;100.00
16580;BME280;8402;51.466;6.806;2022-12-07T05:22:11;101367.66;;;5.82;100.00
16580;BME280;8402;51.466;6.806;2022-12-07T05:24:39;101371.16;;;5.83;100.00
16580;BME280;8402;51.466;6.806;2022-12-07T05:27:07;101369.00;;;5.79;100.00
16580;BME280;8402;51.466;6.806;2022-12-07T05:29:37;101362.53;;;5.80;100.00
16580;BME280;8402;51.466;6.806;2022-12-07T05:32:05;101367.34;;;5.78;100.00
16580;BME280;8402;51.466;6.806;2022-12-07T05:34:32;101366.31;;;5.79;100.00
16580;BME280;8402;51.466;6.806;2022-12-07T05:37:00;101369.53;;;5.82;100.00
16580;BME280;8402;51.466;6.806;2022-12-07T05:39:28;101372.47;;;5.85;100.00
16580;BME280;8402;51.466;6.806;2022-12-07T05:41:56;101367.09;;;5.85;100.00
16580;BME280;8402;51.466;6.806;2022-12-07T05:44:43;101359.81;;;5.86;100.00
16580;BME280;8402;51.466;6.806;2022-12-07T05:47:13;101359.59;;;5.87;100.00
16580;BME280;8402;51.466;6.806;2022-12-07T05:49:41;101363.88;;;5.88;100.00
16580;BME280;8402;51.466;6.806;2022-12-07T05:52:09;101358.78;;;5.87;100.00
16580;BME280;8402;51.466;6.806;2022-12-07T05:54:37;101363.09;;;5.88;100.00
16580;BME280;8402;51.466;6.806;2022-12-07T05:57:05;101351.75;;;5.86;100.00
16580;BME280;8402;51.466;6.806;2022-12-07T05:59:32;101363.09;;;5.88;100.00
16580;BME280;8402;51.466;6.806;2022-12-07T06:02:03;101356.31;;;5.85;100.00
16580;BME280;8402;51.466;6.806;2022-12-07T06:04:34;101355.50;;;5.85;100.00
16580;BME280;8402;51.466;6.806;2022-12-07T06:07:03;101357.13;;;5.86;100.00
16580;BME280;8402;51.466;6.806;2022-12-07T06:09:32;101353.63;;;5.85;100.00
16580;BME280;8402;51.466;6.806;2022-12-07T06:12:00;101363.59;;;5.85;100.00
16580;BME280;8402;51.466;6.806;2022-12-07T06:14:46;101361.97;;;5.84;100.00
16580;BME280;8402;51.466;6.806;2022-12-07T06:17:15;101359.28;;;5.84;100.00
16580;BME280;8402;51.466;6.806;2022-12-07T06:19:43;101352.84;;;5.79;100.00
16580;BME280;8402;51.466;6.806;2022-12-07T06:22:11;101367.91;;;5.80;100.00
16580;BME280;8402;51.466;6.806;2022-12-07T06:24:40;101365.22;;;5.80;100.00
16580;BME280;8402;51.466;6.806;2022-12-07T06:27:07;101374.66;;;5.83;100.00
16580;BME280;8402;51.466;6.806;2022-12-07T06:29:36;101377.88;;;5.85;100.00
16580;BME280;8402;51.466;6.806;2022-12-07T06:32:04;101370.34;;;5.87;100.00
16580;BME280;8402;51.466;6.806;2022-12-07T06:34:34;101371.44;;;5.91;100.00
16580;BME280;8402;51.466;6.806;2022-12-07T06:37:02;101373.88;;;5.93;100.00
16580;BME280;8402;51.466;6.806;2022-12-07T06:39:30;101382.78;;;5.93;100.00
16580;BME280;8402;51.466;6.806;2022-12-07T06:41:58;101380.91;;;5.94;100.00
16580;BME280;8402;51.466;6.806;2022-12-07T06:44:26;101380.91;;;5.94;100.00
16580;BME280;8402;51.466;6.806;2022-12-07T06:46:54;101379.81;;;5.95;100.00
16580;BME280;8402;51.466;6.806;2022-12-07T06:49:44;101384.13;;;5.96;100.00
16580;BME280;8402;51.466;6.806;2022-12-07T06:52:12;101378.75;;;5.96;100.00
16580;BME280;8402;51.466;6.806;2022-12-07T06:54:40;101376.06;;;5.96;100.00
16580;BME280;8402;51.466;6.806;2022-12-07T06:57:08;101378.22;;;5.94;100.00
16580;BME280;8402;51.466;6.806;2022-12-07T06:59:35;101379.25;;;5.93;100.00
16580;BME280;8402;51.466;6.806;2022-12-07T07:02:03;101381.41;;;5.91;100.00
16580;BME280;8402;51.466;6.806;2022-12-07T07:04:31;101378.72;;;5.91;100.00
16580;BME280;8402;51.466;6.806;2022-12-07T07:07:01;101379.78;;;5.90;100.00
16580;BME280;8402;51.466;6.806;2022-12-07T07:09:29;101383.53;;;5.89;100.00
16580;BME280;8402;51.466;6.806;2022-12-07T07:11:56;101388.41;;;5.87;100.00
16580;BME280;8402;51.466;6.806;2022-12-07T07:14:24;101377.88;;;5.85;100.00
16580;BME280;8402;51.466;6.806;2022-12-07T07:16:52;101373.84;;;5.83;100.00
16580;BME280;8402;51.466;6.806;2022-12-07T07:19:20;101376.00;;;5.80;100.00
16580;BME280;8402;51.466;6.806;2022-12-07T07:21:48;101384.06;;;5.80;100.00
16580;BME280;8402;51.466;6.806;2022-12-07T07:24:18;101376.81;;;5.81;100.00
16580;BME280;8402;51.466;6.806;2022-12-07T07:26:46;101378.41;;;5.82;100.00
16580;BME280;8402;51.466;6.806;2022-12-07T07:29:14;101383.25;;;5.85;100.00
16580;BME280;8402;51.466;6.806;2022-12-07T07:31:42;101381.13;;;5.87;100.00
16580;BME280;8402;51.466;6.806;2022-12-07T07:34:10;101379.25;;;5.88;100.00
16580;BME280;8402;51.466;6.806;2022-12-07T07:36:37;101383.53;;;5.89;100.00
16580;BME280;8402;51.466;6.806;2022-12-07T07:39:05;101383.00;;;5.82;100.00
16580;BME280;8402;51.466;6.806;2022-12-07T07:41:35;101381.38;;;5.80;100.00
16580;BME280;8402;51.466;6.806;2022-12-07T07:44:03;101385.41;;;5.78;100.00
16580;BME280;8402;51.466;6.806;2022-12-07T07:46:31;101385.41;;;5.73;100.00
16580;BME280;8402;51.466;6.806;2022-12-07T07:49:00;101394.28;;;5.68;100.00
16580;BME280;8402;51.466;6.806;2022-12-07T07:51:28;101381.34;;;5.65;100.00
16580;BME280;8402;51.466;6.806;2022-12-07T07:53:55;101385.66;;;5.66;100.00
16580;BME280;8402;51.466;6.806;2022-12-07T07:56:24;101392.66;;;5.67;100.00
16580;BME280;8402;51.466;6.806;2022-12-07T07:58:53;101388.88;;;5.68;100.00
16580;BME280;8402;51.466;6.806;2022-12-07T08:01:21;101384.31;;;5.69;100.00
16580;BME280;8402;51.466;6.806;2022-12-07T08:03:49;101384.31;;;5.69;100.00
16580;BME280;8402;51.466;6.806;2022-12-07T08:06:17;101390.50;;;5.69;100.00
16580;BME280;8402;51.466;6.806;2022-12-07T08:08:45;101394.00;;;5.70;100.00
16580;BME280;8402;51.466;6.806;2022-12-07T08:11:13;101395.59;;;5.71;100.00
16580;BME280;8402;51.466;6.806;2022-12-07T08:13:41;101399.09;;;5.71;100.00
16580;BME280;8402;51.466;6.806;2022-12-07T08:16:10;101393.72;;;5.71;100.00
16580;BME280;8402;51.466;6.806;2022-12-07T08:18:40;101402.38;;;5.73;100.00
16580;BME280;8402;51.466;6.806;2022-12-07T08:21:12;101394.81;;;5.75;100.00
16580;BME280;8402;51.466;6.806;2022-12-07T08:23:40;101403.44;;;5.77;100.00
16580;BME280;8402;51.466;6.806;2022-12-07T08:26:12;101402.94;;;5.80;100.00
16580;BME280;8402;51.466;6.806;2022-12-07T08:28:40;101401.31;;;5.79;100.00
16580;BME280;8402;51.466;6.806;2022-12-07T08:31:12;101400.50;;;5.79;100.00
16580;BME280;8402;51.466;6.806;2022-12-07T08:33:41;101394.28;;;5.78;100.00
16580;BME280;8402;51.466;6.806;2022-12-07T08:36:13;101401.00;;;5.76;100.00
16580;BME280;8402;51.466;6.806;2022-12-07T08:38:42;101401.81;;;5.76;100.00
16580;BME280;8402;51.466;6.806;2022-12-07T08:41:29;101400.47;;;5.74;100.00
16580;BME280;8402;51.466;6.806;2022-12-07T08:43:57;101403.16;;;5.74;100.00
16580;BME280;8402;51.466;6.806;2022-12-07T08:46:30;101413.13;;;5.73;100.00
16580;BME280;8402;51.466;6.806;2022-12-07T08:49:05;101412.34;;;5.73;100.00
16580;BME280;8402;51.466;6.806;2022-12-07T08:51:33;101409.63;;;5.73;100.00
16580;BME280;8402;51.466;6.806;2022-12-07T08:54:04;101395.38;;;5.72;100.00
16580;BME280;8402;51.466;6.806;2022-12-07T08:56:34;101402.38;;;5.73;100.00
16580;BME280;8402;51.466;6.806;2022-12-07T08:59:04;101402.88;;;5.70;99.64
16580;BME280;8402;51.466;6.806;2022-12-07T09:01:34;101404.78;;;5.65;100.00
16580;BME280;8402;51.466;6.806;2022-12-07T09:04:02;101406.09;;;5.62;100.00
16580;BME280;8402;51.466;6.806;2022-12-07T09:06:30;101404.47;;;5.61;99.74
16580;BME280;8402;51.466;6.806;2022-12-07T09:08:59;101408.78;;;5.62;100.00
16580;BME280;8402;51.466;6.806;2022-12-07T09:11:28;101403.94;;;5.64;100.00
16580;BME280;8402;51.466;6.806;2022-12-07T09:13:56;101401.25;;;5.69;100.00
16580;BME280;8402;51.466;6.806;2022-12-07T09:16:24;101400.22;;;5.75;100.00
16580;BME280;8402;51.466;6.806;2022-12-07T09:18:53;101399.16;;;5.82;100.00
16580;BME280;8402;51.466;6.806;2022-12-07T09:21:21;101406.72;;;5.90;100.00
16580;BME280;8402;51.466;6.806;2022-12-07T09:23:49;101408.09;;;5.97;100.00
16580;BME280;8402;51.466;6.806;2022-12-07T09:26:17;101408.38;;;6.01;100.00
16580;BME280;8402;51.466;6.806;2022-12-07T09:28:45;101412.16;;;6.05;100.00
16580;BME280;8402;51.466;6.806;2022-12-07T09:31:13;101411.06;;;6.06;100.00
16580;BME280;8402;51.466;6.806;2022-12-07T09:33:55;101411.06;;;6.06;99.99
16580;BME280;8402;51.466;6.806;2022-12-07T09:36:23;101408.94;;;6.08;100.00
16580;BME280;8402;51.466;6.806;2022-12-07T09:38:52;101408.38;;;6.06;99.98
16580;BME280;8402;51.466;6.806;2022-12-07T09:41:21;101407.28;;;6.07;100.00
16580;BME280;8402;51.466;6.806;2022-12-07T09:43:51;101406.78;;;6.10;100.00
16580;BME280;8402;51.466;6.806;2022-12-07T09:46:20;101401.38;;;6.10;100.00
16580;BME280;8402;51.466;6.806;2022-12-07T09:48:49;101402.47;;;6.14;100.00
16580;BME280;8402;51.466;6.806;2022-12-07T09:51:21;101404.34;;;6.19;100.00
16580;BME280;8402;51.466;6.806;2022-12-07T09:53:52;101397.63;;;6.21;100.00
16580;BME280;8402;51.466;6.806;2022-12-07T09:56:21;101396.53;;;6.27;100.00
16580;BME280;8402;51.466;6.806;2022-12-07T09:58:51;101399.00;;;6.29;100.00
16580;BME280;8402;51.466;6.806;2022-12-07T10:01:23;101391.69;;;6.34;100.00
16580;BME280;8402;51.466;6.806;2022-12-07T10:03:53;101391.16;;;6.43;100.00
16580;BME280;8402;51.466;6.806;2022-12-07T10:06:23;101390.63;;;6.51;100.00
16580;BME280;8402;51.466;6.806;2022-12-07T10:08:51;101389.00;;;6.60;100.00
16580;BME280;8402;51.466;6.806;2022-12-07T10:11:19;101387.13;;;6.66;100.00
16580;BME280;8402;51.466;6.806;2022-12-07T10:13:48;101388.97;;;6.75;100.00
16580;BME280;8402;51.466;6.806;2022-12-07T10:16:37;101378.72;;;6.77;100.00
16580;BME280;8402;51.466;6.806;2022-12-07T10:19:22;101380.84;;;6.85;100.00
16580;BME280;8402;51.466;6.806;2022-12-07T10:22:10;101379.75;;;6.92;100.00
16580;BME280;8402;51.466;6.806;2022-12-07T10:24:39;101374.88;;;6.99;100.00
16580;BME280;8402;51.466;6.806;2022-12-07T10:27:18;101363.28;;;6.98;99.02
16580;BME280;8402;51.466;6.806;2022-12-07T10:29:48;101371.91;;;7.05;99.88
16580;BME280;8402;51.466;6.806;2022-12-07T10:32:31;101362.75;;;7.01;98.96
16580;BME280;8402;51.466;6.806;2022-12-07T10:35:22;101365.19;;;7.03;98.69
16580;BME280;8402;51.466;6.806;2022-12-07T10:37:53;101357.59;;;7.10;99.18
16580;BME280;8402;51.466;6.806;2022-12-07T10:40:30;101353.28;;;7.09;98.66
16580;BME280;8402;51.466;6.806;2022-12-07T10:43:18;101349.78;;;7.08;99.64
16580;BME280;8402;51.466;6.806;2022-12-07T10:48:58;101353.25;;;7.19;99.35
16580;BME280;8402;51.466;6.806;2022-12-07T10:51:38;101338.13;;;7.23;98.88
16580;BME280;8402;51.466;6.806;2022-12-07T10:54:18;101340.78;;;7.28;98.96
16580;BME280;8402;51.466;6.806;2022-12-07T10:57:08;101346.44;;;7.27;98.37
16580;BME280;8402;51.466;6.806;2022-12-07T11:00:04;101345.94;;;7.25;97.85
16580;BME280;8402;51.466;6.806;2022-12-07T11:02:54;101341.34;;;7.25;98.14
16580;BME280;8402;51.466;6.806;2022-12-07T11:05:27;101344.59;;;7.22;98.26
16580;BME280;8402;51.466;6.806;2022-12-07T11:08:03;101337.56;;;7.26;98.90
16580;BME280;8402;51.466;6.806;2022-12-07T11:10:42;101339.72;;;7.24;97.13
16580;BME280;8402;51.466;6.806;2022-12-07T11:13:23;101329.97;;;7.28;98.08
16580;BME280;8402;51.466;6.806;2022-12-07T11:18:52;101331.06;;;7.32;97.69
16580;BME280;8402;51.466;6.806;2022-12-07T11:21:31;101323.47;;;7.34;98.17
16580;BME280;8402;51.466;6.806;2022-12-07T11:24:10;101314.28;;;7.35;97.76
16580;BME280;8402;51.466;6.806;2022-12-07T11:27:02;101317.53;;;7.37;97.54
16580;BME280;8402;51.466;6.806;2022-12-07T11:30:14;101312.63;;;7.44;97.35
16580;BME280;8402;51.466;6.806;2022-12-07T11:32:53;101304.97;;;7.57;97.26
16580;BME280;8402;51.466;6.806;2022-12-07T11:35:36;101304.75;;;7.53;96.25
16580;BME280;8402;51.466;6.806;2022-12-07T11:38:11;101307.13;;;7.60;97.30
16580;BME280;8402;51.466;6.806;2022-12-07T11:40:40;101301.75;;;7.60;96.36
16580;BME280;8402;51.466;6.806;2022-12-07T11:43:18;101291.44;;;7.62;96.14
16580;BME280;8402;51.466;6.806;2022-12-07T11:45:52;101291.97;;;7.64;96.71
16580;BME280;8402;51.466;6.806;2022-12-07T11:48:27;101292.53;;;7.66;96.16
16580;BME280;8402;51.466;6.806;2022-12-07T11:50:58;101284.94;;;7.68;96.25
16580;BME280;8402;51.466;6.806;2022-12-07T11:53:31;101285.75;;;7.68;95.97
16580;BME280;8402;51.466;6.806;2022-12-07T11:56:06;101285.22;;;7.66;96.34
16580;BME280;8402;51.466;6.806;2022-12-07T11:58:44;101289.84;;;7.61;95.81
16580;BME280;8402;51.466;6.806;2022-12-07T12:01:36;101290.09;;;7.64;95.76
16580;BME280;8402;51.466;6.806;2022-12-07T12:04:20;101290.91;;;7.65;94.78
16580;BME280;8402;51.466;6.806;2022-12-07T12:06:49;101286.00;;;7.72;95.48
16580;BME280;8402;51.466;6.806;2022-12-07T12:09:23;101286.50;;;7.74;95.85
16580;BME280;8402;51.466;6.806;2022-12-07T12:15:37;101283.88;;;7.64;95.17
16580;BME280;8402;51.466;6.806;2022-12-07T12:21:16;101279.78;;;7.71;96.69
16580;BME280;8402;51.466;6.806;2022-12-07T12:23:48;101270.81;;;7.76;96.84
16580;BME280;8402;51.466;6.806;2022-12-07T12:26:20;101272.19;;;7.79;96.71
16580;BME280;8402;51.466;6.806;2022-12-07T12:28:52;101265.94;;;7.78;95.79
16580;BME280;8402;51.466;6.806;2022-12-07T12:31:35;101266.22;;;7.77;95.34
16580;BME280;8402;51.466;6.806;2022-12-07T12:36:47;101268.13;;;7.76;95.63
16580;BME280;8402;51.466;6.806;2022-12-07T12:39:16;101266.47;;;7.80;96.37
16580;BME280;8402;51.466;6.806;2022-12-07T12:41:56;101257.84;;;7.78;95.79
16580;BME280;8402;51.466;6.806;2022-12-07T12:45:17;101260.03;;;7.76;94.92
16580;BME280;8402;51.466;6.806;2022-12-07T12:48:10;101249.72;;;7.78;94.63
16580;BME280;8402;51.466;6.806;2022-12-07T12:54:03;101244.31;;;7.78;95.88
16580;BME280;8402;51.466;6.806;2022-12-07T12:56:40;101245.47;;;7.72;95.04
16580;BME280;8402;51.466;6.806;2022-12-07T12:59:31;101245.91;;;7.84;95.55
16580;BME280;8402;51.466;6.806;2022-12-07T13:02:20;101237.75;;;7.89;94.90
16580;BME280;8402;51.466;6.806;2022-12-07T13:04:53;101238.25;;;7.96;94.45
16580;BME280;8402;51.466;6.806;2022-12-07T13:07:49;101235.03;;;7.94;94.23
16580;BME280;8402;51.466;6.806;2022-12-07T13:10:48;101243.16;;;7.89;92.98
16580;BME280;8402;51.466;6.806;2022-12-07T13:13:33;101241.06;;;7.81;93.53
16580;BME280;8402;51.466;6.806;2022-12-07T13:22:52;101244.91;;;7.75;93.69
16580;BME280;8402;51.466;6.806;2022-12-07T13:25:29;101236.75;;;7.80;94.46
16580;BME280;8402;51.466;6.806;2022-12-07T13:28:01;101231.06;;;7.82;95.10
16580;BME280;8402;51.466;6.806;2022-12-07T13:30:30;101234.06;;;7.80;94.88
16580;BME280;8402;51.466;6.806;2022-12-07T13:32:59;101230.28;;;7.81;94.62
16580;BME280;8402;51.466;6.806;2022-12-07T13:35:30;101218.66;;;7.81;94.30
16580;BME280;8402;51.466;6.806;2022-12-07T13:38:01;101217.31;;;7.78;94.88
16580;BME280;8402;51.466;6.806;2022-12-07T13:40:31;101218.41;;;7.77;94.87
16580;BME280;8402;51.466;6.806;2022-12-07T13:43:00;101210.28;;;7.77;95.02
16580;BME280;8402;51.466;6.806;2022-12-07T13:45:30;101206.00;;;7.76;94.94
16580;BME280;8402;51.466;6.806;2022-12-07T13:48:21;101194.63;;;7.79;94.24
16580;BME280;8402;51.466;6.806;2022-12-07T13:50:54;101196.25;;;7.80;93.93
16580;BME280;8402;51.466;6.806;2022-12-07T13:53:24;101198.41;;;7.78;93.59
16580;BME280;8402;51.466;6.806;2022-12-07T13:55:54;101197.34;;;7.79;94.23